Terminal Aerodrome Forecast
Issued by NWS

Home | Current Version | Previous Version | Text Only | Print | Product List | Glossary On
Versions: 1 2 3 4 5 6 7 8 9 10 11 12 13
000
FTUS45 KLKN 230536
TAFWMC
TAF
KWMC 230536Z 2306/2406 03008KT P6SM FEW100
     FM232000 35008KT P6SM SCT060
     FM240500 01004KT P6SM FEW060=

USA.gov is the U.S. government's official web portal to all federal, state and local government web resources and services.